createdAt,value
2023-05-22T00:00:07.588Z,3.00
2023-05-22T00:02:43.187Z,3.20
2023-05-22T00:05:12.582Z,2.88
2023-05-22T00:07:40.387Z,3.35
2023-05-22T00:10:07.559Z,3.55
2023-05-22T00:12:39.694Z,3.13
2023-05-22T00:15:07.049Z,3.13
2023-05-22T00:17:34.342Z,3.22
2023-05-22T00:20:08.319Z,3.53
2023-05-22T00:22:39.548Z,3.08
2023-05-22T00:25:07.938Z,2.70
2023-05-22T00:27:39.929Z,3.35
2023-05-22T00:30:08.776Z,2.80
2023-05-22T00:32:36.058Z,3.13
2023-05-22T00:35:03.564Z,2.75
2023-05-22T00:37:30.327Z,3.30
2023-05-22T00:39:56.910Z,3.10
2023-05-22T00:42:25.677Z,2.90
2023-05-22T00:47:18.920Z,2.53
2023-05-22T00:49:50.776Z,2.38
2023-05-22T00:52:22.837Z,2.40
2023-05-22T00:54:50.848Z,2.50
2023-05-22T00:57:22.128Z,2.80
2023-05-22T00:59:49.247Z,2.70
2023-05-22T01:02:16.779Z,3.10
2023-05-22T01:04:48.753Z,2.08
2023-05-22T01:07:18.781Z,2.55
2023-05-22T01:09:45.473Z,2.63
2023-05-22T01:12:42.726Z,2.38
2023-05-22T01:15:09.301Z,2.15
2023-05-22T01:17:46.388Z,2.65
2023-05-22T01:20:33.997Z,2.15
2023-05-22T01:23:40.612Z,2.33
2023-05-22T01:26:13.959Z,2.60
2023-05-22T01:28:57.130Z,2.17
2023-05-22T01:31:31.474Z,2.55
2023-05-22T01:34:04.838Z,2.20
2023-05-22T01:36:37.121Z,2.50
2023-05-22T01:39:06.384Z,2.15
2023-05-22T01:41:34.275Z,2.40
2023-05-22T01:44:01.987Z,2.15
2023-05-22T01:46:30.287Z,2.03
2023-05-22T01:48:57.797Z,2.30
2023-05-22T01:51:32.465Z,2.28
2023-05-22T01:54:32.890Z,2.08
2023-05-22T01:57:16.625Z,2.30
2023-05-22T01:59:59.592Z,2.13
2023-05-22T02:02:27.728Z,2.10
2023-05-22T02:05:00.798Z,1.90
2023-05-22T02:07:29.094Z,2.10
2023-05-22T02:09:59.704Z,1.88
2023-05-22T02:12:26.906Z,2.10
2023-05-22T02:14:54.138Z,1.90
2023-05-22T02:17:26.158Z,1.75
2023-05-22T02:19:52.859Z,2.03
2023-05-22T02:22:21.904Z,2.13
2023-05-22T02:24:53.212Z,1.65
2023-05-22T02:27:20.018Z,2.00
2023-05-22T02:29:51.502Z,2.08
2023-05-22T02:32:18.098Z,1.83
2023-05-22T02:34:48.317Z,2.05
2023-05-22T02:37:16.057Z,2.00
2023-05-22T02:39:42.610Z,2.15
2023-05-22T02:42:09.348Z,2.20
2023-05-22T02:44:38.204Z,2.20
2023-05-22T02:49:31.537Z,2.10
2023-05-22T02:51:58.141Z,2.53
2023-05-22T02:54:27.473Z,2.45
2023-05-22T02:56:54.162Z,2.03
2023-05-22T02:59:20.777Z,2.28
2023-05-22T03:01:48.544Z,2.20
2023-05-22T03:04:17.459Z,1.80
2023-05-22T03:09:13.026Z,1.80
2023-05-22T03:11:41.984Z,1.95
2023-05-22T03:14:08.643Z,2.20
2023-05-22T03:16:35.279Z,1.95
2023-05-22T03:19:11.638Z,2.35
2023-05-22T03:21:38.735Z,2.13
2023-05-22T03:24:05.843Z,2.15
2023-05-22T03:26:34.857Z,1.63
2023-05-22T03:29:01.546Z,2.20
2023-05-22T03:31:31.477Z,1.98
2023-05-22T03:34:03.722Z,2.20
2023-05-22T03:36:35.956Z,2.22
2023-05-22T03:39:05.387Z,2.00
2023-05-22T03:41:32.067Z,1.85
2023-05-22T03:44:03.879Z,1.90
2023-05-22T03:46:30.525Z,2.33
2023-05-22T03:48:57.191Z,2.10
2023-05-22T03:51:23.979Z,2.17
2023-05-22T03:53:52.887Z,2.08
2023-05-22T03:58:48.884Z,2.15
2023-05-22T04:01:16.913Z,2.10
2023-05-22T04:03:43.775Z,1.92
2023-05-22T04:06:13.760Z,1.80
2023-05-22T04:08:40.460Z,2.30
2023-05-22T04:11:07.035Z,2.00
2023-05-22T04:13:33.584Z,1.90
2023-05-22T04:16:02.089Z,1.83
2023-05-22T04:18:28.980Z,1.70
2023-05-22T04:20:55.961Z,1.60
2023-05-22T04:23:22.777Z,1.90
2023-05-22T04:25:49.740Z,2.20
2023-05-22T04:28:17.709Z,2.00
2023-05-22T04:30:47.108Z,2.05
2023-05-22T04:33:13.781Z,1.90
2023-05-22T04:35:44.331Z,1.63
2023-05-22T04:38:13.287Z,1.98
2023-05-22T04:40:40.068Z,1.90
2023-05-22T04:43:09.115Z,2.00
2023-05-22T04:45:42.328Z,1.83
2023-05-22T04:48:12.025Z,1.60
2023-05-22T04:50:39.046Z,2.10
2023-05-22T04:53:08.109Z,1.60
2023-05-22T04:55:34.722Z,2.15
2023-05-22T04:58:01.588Z,2.53
2023-05-22T05:00:28.999Z,2.13
2023-05-22T05:02:57.488Z,2.17
2023-05-22T05:05:24.377Z,1.98
2023-05-22T05:07:51.760Z,1.95
2023-05-22T05:10:18.619Z,1.80
2023-05-22T05:12:45.580Z,1.60
2023-05-22T05:15:12.371Z,1.88
2023-05-22T05:17:43.555Z,1.90
2023-05-22T05:20:14.619Z,1.98
2023-05-22T05:22:41.390Z,1.80
2023-05-22T05:25:09.594Z,1.65
2023-05-22T05:27:38.180Z,2.13
2023-05-22T05:30:05.298Z,1.90
2023-05-22T05:32:31.954Z,1.92
2023-05-22T05:34:58.677Z,1.95
2023-05-22T05:37:26.112Z,1.90
2023-05-22T05:39:57.507Z,1.67
2023-05-22T05:42:24.124Z,2.00
2023-05-22T05:44:53.139Z,2.03
2023-05-22T05:47:19.793Z,2.22
2023-05-22T05:49:49.484Z,2.33
2023-05-22T05:52:16.090Z,2.38
2023-05-22T05:54:49.416Z,1.65
2023-05-22T05:57:16.549Z,1.50
2023-05-22T05:59:43.149Z,1.80
2023-05-22T06:02:12.857Z,1.70
2023-05-22T06:04:39.630Z,2.10
2023-05-22T06:07:09.260Z,1.60
2023-05-22T06:09:36.313Z,2.13
2023-05-22T06:12:05.239Z,1.90
2023-05-22T06:14:31.873Z,1.83
2023-05-22T06:17:01.964Z,2.00
2023-05-22T06:19:31.696Z,2.10
2023-05-22T06:21:58.398Z,2.00
2023-05-22T06:24:25.004Z,2.30
2023-05-22T06:26:56.400Z,2.20
2023-05-22T06:29:23.185Z,2.00
2023-05-22T06:31:52.326Z,1.98
2023-05-22T06:34:19.045Z,1.75
2023-05-22T06:36:46.040Z,1.98
2023-05-22T06:39:12.691Z,2.20
2023-05-22T06:41:39.255Z,1.88
2023-05-22T06:44:08.410Z,2.20
2023-05-22T06:46:35.379Z,1.60
2023-05-22T06:49:05.061Z,2.03
2023-05-22T06:51:34.313Z,2.05
2023-05-22T06:54:01.132Z,2.00
2023-05-22T06:56:30.952Z,2.40
2023-05-22T06:58:59.965Z,2.00
2023-05-22T07:01:26.944Z,1.70
2023-05-22T07:03:53.630Z,1.67
2023-05-22T07:06:20.406Z,1.77
2023-05-22T07:08:49.243Z,2.47
2023-05-22T07:13:44.832Z,2.08
2023-05-22T07:16:11.520Z,2.10
2023-05-22T07:18:40.111Z,1.65
2023-05-22T07:21:06.753Z,1.90
2023-05-22T07:23:35.704Z,2.17
2023-05-22T07:26:04.416Z,2.00
2023-05-22T07:31:00.396Z,1.70
2023-05-22T07:33:31.814Z,1.83
2023-05-22T07:35:58.405Z,2.13
2023-05-22T07:38:25.013Z,2.00
2023-05-22T07:40:51.630Z,1.60
2023-05-22T07:43:18.339Z,1.80
2023-05-22T07:45:47.136Z,2.17
2023-05-22T07:48:13.791Z,2.60
2023-05-22T07:50:45.496Z,2.20
2023-05-22T07:53:14.963Z,1.85
2023-05-22T07:55:42.266Z,1.88
2023-05-22T07:58:10.857Z,1.90
2023-05-22T08:00:39.802Z,1.77
2023-05-22T08:03:12.387Z,2.17
2023-05-22T08:05:39.163Z,2.00
2023-05-22T08:08:10.343Z,1.73
2023-05-22T08:10:47.212Z,1.70
2023-05-22T08:13:23.784Z,1.95
2023-05-22T08:15:50.626Z,2.35
2023-05-22T08:18:29.163Z,2.10
2023-05-22T08:23:25.029Z,2.03
2023-05-22T08:25:57.506Z,2.15
2023-05-22T08:28:24.239Z,1.98
2023-05-22T08:30:51.024Z,2.30
2023-05-22T08:33:17.761Z,2.10
2023-05-22T08:35:46.923Z,2.05
2023-05-22T08:38:18.332Z,2.20
2023-05-22T08:40:48.869Z,2.20
2023-05-22T08:43:15.936Z,1.90
2023-05-22T08:45:43.834Z,2.30
2023-05-22T08:48:14.716Z,1.77
2023-05-22T08:50:43.581Z,1.83
2023-05-22T08:53:15.723Z,2.03
2023-05-22T08:55:42.654Z,1.73
2023-05-22T08:58:14.387Z,2.58
2023-05-22T09:00:41.862Z,2.10
2023-05-22T09:03:13.994Z,1.70
2023-05-22T09:05:41.442Z,1.85
2023-05-22T09:08:18.975Z,2.42
2023-05-22T09:10:46.970Z,2.10
2023-05-22T09:13:30.552Z,2.15
2023-05-22T09:16:07.554Z,2.92
2023-05-22T09:18:34.226Z,2.22
2023-05-22T09:21:03.745Z,1.80
2023-05-22T09:23:33.708Z,2.20
2023-05-22T09:26:02.686Z,2.75
2023-05-22T09:28:37.028Z,2.35
2023-05-22T09:31:04.723Z,3.15
2023-05-22T09:33:34.549Z,2.03
2023-05-22T09:36:01.608Z,2.00
2023-05-22T09:38:30.094Z,2.03
2023-05-22T09:40:57.221Z,2.25
2023-05-22T09:43:28.728Z,2.25
2023-05-22T09:46:04.738Z,2.28
2023-05-22T09:48:38.179Z,2.40
2023-05-22T09:51:08.600Z,2.08
2023-05-22T09:53:38.289Z,3.22
2023-05-22T09:56:10.952Z,2.20
2023-05-22T09:58:43.243Z,2.17
2023-05-22T10:01:13.873Z,2.50
2023-05-22T10:03:43.102Z,2.00
2023-05-22T10:06:12.336Z,2.05
2023-05-22T10:08:44.125Z,2.03
2023-05-22T10:11:13.723Z,2.20
2023-05-22T10:13:43.502Z,2.22
2023-05-22T10:16:16.362Z,1.88
2023-05-22T10:18:49.149Z,2.10
2023-05-22T10:21:18.654Z,2.03
2023-05-22T10:23:45.759Z,2.10
2023-05-22T10:26:16.527Z,1.90
2023-05-22T10:28:48.462Z,2.30
2023-05-22T10:31:20.486Z,1.90
2023-05-22T10:33:59.531Z,2.00
2023-05-22T10:36:51.284Z,2.15
2023-05-22T10:39:32.753Z,2.00
2023-05-22T10:41:59.428Z,2.05
2023-05-22T10:44:30.635Z,2.38
2023-05-22T10:47:10.201Z,2.60
2023-05-22T10:49:44.305Z,1.90
2023-05-22T10:52:14.847Z,2.00
2023-05-22T10:54:53.524Z,2.03
2023-05-22T10:57:20.884Z,2.25
2023-05-22T10:59:47.909Z,2.50
2023-05-22T11:02:31.331Z,2.65
2023-05-22T11:05:25.868Z,2.30
2023-05-22T11:08:09.699Z,2.50
2023-05-22T11:10:56.245Z,2.20
2023-05-22T11:13:29.352Z,2.00
2023-05-22T11:15:57.689Z,2.08
2023-05-22T11:18:28.407Z,2.30
2023-05-22T11:20:58.977Z,2.22
2023-05-22T11:23:27.889Z,2.10
2023-05-22T11:25:56.745Z,2.30
2023-05-22T11:28:26.558Z,2.30
2023-05-22T11:30:54.378Z,2.20
2023-05-22T11:33:21.214Z,2.05
2023-05-22T11:35:51.777Z,2.17
2023-05-22T11:38:19.405Z,2.10
2023-05-22T11:40:46.006Z,2.10
2023-05-22T11:43:12.616Z,2.22
2023-05-22T11:45:39.938Z,2.58
2023-05-22T11:48:09.089Z,2.78
2023-05-22T11:50:42.706Z,2.10
2023-05-22T11:53:09.867Z,2.13
2023-05-22T11:55:38.764Z,2.10
2023-05-22T11:58:07.604Z,2.20
2023-05-22T12:00:36.386Z,2.42
2023-05-22T12:03:11.837Z,2.40
2023-05-22T12:05:44.805Z,2.33
2023-05-22T12:08:16.531Z,2.40
2023-05-22T12:10:55.126Z,2.10
2023-05-22T12:13:26.952Z,2.13
2023-05-22T12:15:56.221Z,2.20
2023-05-22T12:18:23.002Z,1.90
2023-05-22T12:20:56.247Z,2.20
2023-05-22T12:23:26.968Z,2.10
2023-05-22T12:26:12.497Z,2.55
2023-05-22T12:28:41.504Z,2.72
2023-05-22T12:31:08.197Z,1.90
2023-05-22T12:33:34.804Z,2.28
2023-05-22T12:36:08.959Z,2.10
2023-05-22T12:38:41.441Z,2.40
2023-05-22T12:41:08.085Z,2.58
2023-05-22T12:43:37.201Z,2.80
2023-05-22T12:46:04.048Z,2.40
2023-05-22T12:48:30.729Z,2.30
2023-05-22T12:50:59.907Z,2.38
2023-05-22T12:53:26.554Z,2.15
2023-05-22T12:55:53.135Z,2.00
2023-05-22T12:58:19.719Z,1.83
2023-05-22T13:00:46.336Z,2.20
2023-05-22T13:33:27.390Z,2.20
2023-05-22T13:35:56.300Z,2.13
2023-05-22T13:38:25.401Z,2.60
2023-05-22T13:40:54.534Z,2.30
2023-05-22T13:43:21.158Z,2.60
2023-05-22T13:45:47.850Z,3.15
2023-05-22T13:48:16.996Z,2.45
2023-05-22T13:50:45.812Z,2.10
2023-05-22T13:53:24.311Z,2.50
2023-05-22T13:55:51.087Z,2.47
2023-05-22T13:58:17.678Z,2.22
2023-05-22T14:00:44.342Z,2.40
2023-05-22T14:03:17.315Z,2.70
2023-05-22T14:05:47.523Z,2.47
2023-05-22T14:08:14.162Z,2.63
2023-05-22T14:10:45.279Z,2.90
2023-05-22T14:13:11.901Z,2.30
2023-05-22T14:15:38.618Z,2.60
2023-05-22T14:18:07.563Z,2.60
2023-05-22T14:20:34.485Z,2.50
2023-05-22T14:23:05.930Z,2.20
2023-05-22T14:25:35.079Z,2.47
2023-05-22T14:28:01.805Z,2.40
2023-05-22T14:30:28.396Z,2.60
2023-05-22T14:32:55.038Z,3.08
2023-05-22T14:35:21.738Z,2.60
2023-05-22T14:37:50.846Z,4.40
2023-05-22T14:40:17.660Z,2.70
2023-05-22T14:42:44.896Z,2.65
2023-05-22T14:45:12.163Z,2.30
2023-05-22T14:47:40.631Z,2.70
2023-05-22T14:52:41.222Z,2.45
2023-05-22T14:55:10.780Z,2.58
2023-05-22T14:57:37.422Z,2.58
2023-05-22T15:00:08.765Z,2.70
2023-05-22T15:02:35.478Z,2.92
2023-05-22T15:05:02.313Z,2.50
2023-05-22T15:10:05.814Z,2.38
2023-05-22T15:12:32.632Z,2.50
2023-05-22T15:14:59.421Z,2.72
2023-05-22T15:17:26.078Z,2.85
2023-05-22T15:19:52.732Z,2.35
2023-05-22T15:22:23.162Z,2.45
2023-05-22T15:25:04.116Z,2.75
2023-05-22T15:27:34.959Z,2.40
2023-05-22T15:30:02.405Z,2.45
2023-05-22T15:32:31.557Z,3.05
2023-05-22T15:34:58.302Z,4.28
2023-05-22T15:37:24.943Z,2.70
2023-05-22T15:39:51.560Z,2.50
2023-05-22T15:42:18.270Z,2.35
2023-05-22T15:44:47.574Z,2.70
2023-05-22T15:47:14.850Z,2.60
2023-05-22T15:49:48.727Z,2.22
2023-05-22T15:52:15.929Z,2.50
2023-05-22T15:54:42.610Z,2.50
2023-05-22T15:57:09.354Z,2.38
2023-05-22T15:59:38.211Z,2.75
2023-05-22T16:02:07.346Z,2.95
2023-05-22T16:04:33.977Z,2.90
2023-05-22T16:07:02.840Z,2.60
2023-05-22T16:09:31.402Z,2.65
2023-05-22T16:12:02.110Z,2.65
2023-05-22T16:14:29.144Z,2.35
2023-05-22T16:16:59.094Z,2.53
2023-05-22T16:19:29.052Z,2.20
2023-05-22T16:21:58.607Z,2.53
2023-05-22T16:24:27.598Z,2.95
2023-05-22T16:26:56.434Z,2.30
2023-05-22T16:29:23.082Z,2.55
2023-05-22T16:31:52.416Z,2.20
2023-05-22T16:34:19.108Z,2.40
2023-05-22T16:36:49.223Z,2.35
2023-05-22T16:39:16.000Z,2.35
2023-05-22T16:41:44.807Z,2.53
2023-05-22T16:44:11.419Z,2.70
2023-05-22T16:46:38.055Z,2.40
2023-05-22T16:49:04.749Z,2.45
2023-05-22T16:51:33.698Z,2.40
2023-05-22T16:54:00.307Z,2.80
2023-05-22T16:56:34.157Z,2.53
2023-05-22T16:59:03.504Z,2.65
2023-05-22T17:01:32.322Z,2.50
2023-05-22T17:04:02.079Z,2.60
2023-05-22T17:06:29.566Z,2.40
2023-05-22T17:08:58.484Z,2.50
2023-05-22T17:11:26.103Z,2.47
2023-05-22T17:13:54.049Z,3.10
2023-05-22T17:16:23.249Z,2.65
2023-05-22T17:18:59.401Z,2.95
2023-05-22T17:21:29.589Z,3.40
2023-05-22T17:24:01.848Z,2.47
2023-05-22T17:30:17.621Z,2.90
2023-05-22T17:32:45.171Z,2.67
2023-05-22T17:35:16.503Z,2.88
2023-05-22T17:37:43.138Z,2.70
2023-05-22T17:40:10.319Z,2.50
2023-05-22T17:42:37.012Z,2.60
2023-05-22T17:45:03.850Z,2.60
2023-05-22T17:47:32.702Z,2.58
2023-05-22T17:49:59.428Z,2.58
2023-05-22T17:52:26.135Z,2.50
2023-05-22T17:54:52.985Z,2.90
2023-05-22T17:57:19.621Z,2.63
2023-05-22T17:59:46.189Z,3.13
2023-05-22T18:02:15.781Z,2.90
2023-05-22T18:04:44.724Z,2.90
2023-05-22T18:07:11.575Z,3.13
2023-05-22T18:09:40.731Z,2.30
2023-05-22T18:12:09.387Z,4.75
2023-05-22T18:14:39.569Z,2.67
2023-05-22T18:17:08.460Z,2.35
2023-05-22T18:19:37.865Z,3.22
2023-05-22T18:22:04.753Z,2.55
2023-05-22T18:24:36.456Z,2.55
2023-05-22T18:27:03.838Z,2.58
2023-05-22T18:29:30.683Z,2.63
2023-05-22T18:32:02.390Z,2.50
2023-05-22T18:34:32.286Z,2.70
2023-05-22T18:37:03.877Z,3.33
2023-05-22T18:39:30.581Z,2.50
2023-05-22T18:42:06.445Z,3.13
2023-05-22T18:44:38.133Z,2.45
2023-05-22T18:47:08.159Z,3.28
2023-05-22T18:49:37.269Z,3.10
2023-05-22T18:52:07.157Z,3.10
2023-05-22T18:54:36.816Z,2.70
2023-05-22T19:00:55.427Z,3.10
2023-05-22T19:03:25.123Z,2.65
2023-05-22T19:05:51.799Z,3.22
2023-05-22T19:08:26.512Z,3.00
2023-05-22T19:10:55.932Z,3.78
2023-05-22T19:13:22.476Z,2.85
2023-05-22T19:15:49.131Z,3.00
2023-05-22T19:18:15.959Z,3.05
2023-05-22T19:20:43.299Z,3.28
2023-05-22T19:23:13.755Z,2.63
2023-05-22T19:25:40.606Z,3.08
2023-05-22T19:28:09.381Z,2.58
2023-05-22T19:33:11.247Z,2.55
2023-05-22T19:35:38.915Z,2.90
2023-05-22T19:38:08.540Z,2.70
2023-05-22T19:40:37.583Z,3.30
2023-05-22T19:43:06.959Z,2.72
2023-05-22T19:45:33.637Z,2.72
2023-05-22T19:48:00.527Z,2.97
2023-05-22T19:56:47.892Z,2.92
2023-05-22T19:59:14.618Z,3.42
2023-05-22T20:01:43.631Z,3.38
2023-05-22T20:04:13.371Z,2.78
2023-05-22T20:06:40.355Z,3.10
2023-05-22T20:09:06.913Z,3.15
2023-05-22T20:11:35.786Z,2.70
2023-05-22T20:14:03.397Z,3.10
2023-05-22T20:16:30.006Z,2.70
2023-05-22T20:18:56.754Z,2.85
2023-05-22T20:21:23.396Z,2.92
2023-05-22T20:23:52.902Z,2.63
2023-05-22T20:26:21.883Z,2.85
2023-05-22T20:28:48.489Z,2.58
2023-05-22T20:31:17.538Z,2.58
2023-05-22T20:33:46.904Z,3.08
2023-05-22T20:36:17.940Z,2.88
2023-05-22T20:38:46.670Z,2.78
2023-05-22T20:43:43.280Z,2.92
2023-05-22T20:46:10.430Z,3.20
2023-05-22T20:48:38.089Z,2.80
2023-05-22T20:51:05.044Z,2.88
2023-05-22T20:53:33.985Z,3.00
2023-05-22T20:56:00.599Z,2.60
2023-05-22T20:58:27.392Z,2.47
2023-05-22T21:00:54.245Z,1.92
2023-05-22T21:03:21.518Z,2.60
2023-05-22T21:05:51.086Z,2.65
2023-05-22T21:08:20.508Z,2.83
2023-05-22T21:10:47.132Z,2.40
2023-05-22T21:13:20.031Z,2.50
2023-05-22T21:15:51.450Z,2.15
2023-05-22T21:18:20.390Z,2.72
2023-05-22T21:20:46.962Z,2.28
2023-05-22T21:23:21.965Z,2.75
2023-05-22T21:25:54.887Z,2.42
2023-05-22T21:28:24.254Z,2.88
2023-05-22T21:30:50.866Z,2.47
2023-05-22T21:33:17.454Z,2.33
2023-05-22T21:35:47.490Z,2.72
2023-05-22T21:38:14.109Z,2.42
2023-05-22T21:40:42.727Z,3.22
2023-05-22T21:45:38.966Z,2.58
2023-05-22T21:48:08.005Z,2.83
2023-05-22T21:50:34.719Z,2.38
2023-05-22T21:53:04.078Z,3.10
2023-05-22T21:55:33.018Z,2.83
2023-05-22T21:57:59.616Z,2.55
2023-05-22T22:00:28.541Z,2.40
2023-05-22T22:02:57.395Z,2.70
2023-05-22T22:07:54.264Z,3.10
2023-05-22T22:10:21.291Z,2.78
2023-05-22T22:12:48.105Z,3.38
2023-05-22T22:15:14.798Z,3.30
2023-05-22T22:17:41.425Z,3.20
2023-05-22T22:20:11.673Z,2.80
2023-05-22T22:22:40.099Z,3.00
2023-05-22T22:25:07.075Z,3.10
2023-05-22T22:27:33.674Z,3.63
2023-05-22T22:30:00.349Z,3.05
2023-05-22T22:32:26.987Z,3.13
2023-05-22T22:34:54.164Z,2.95
2023-05-22T22:37:23.564Z,3.05
2023-05-22T22:39:52.430Z,3.17
2023-05-22T22:44:47.966Z,2.80
2023-05-22T22:47:14.555Z,3.10
2023-05-22T22:49:41.159Z,2.83
2023-05-22T22:52:10.376Z,3.60
2023-05-22T22:54:41.945Z,2.92
2023-05-22T22:57:13.566Z,2.97
2023-05-22T22:59:45.530Z,2.90
2023-05-22T23:02:12.129Z,3.22
2023-05-22T23:04:38.844Z,3.00
2023-05-22T23:07:06.200Z,3.25
2023-05-22T23:09:35.926Z,3.22
2023-05-22T23:12:03.029Z,3.63
2023-05-22T23:14:29.601Z,3.67
2023-05-22T23:16:56.586Z,3.42
2023-05-22T23:19:23.346Z,2.72
2023-05-22T23:21:50.207Z,2.63
2023-05-22T23:24:19.238Z,2.80
2023-05-22T23:26:45.862Z,3.03
2023-05-22T23:29:14.516Z,3.08
2023-05-22T23:31:41.140Z,2.63
2023-05-22T23:34:10.123Z,2.80
2023-05-22T23:39:03.741Z,2.45
2023-05-22T23:41:30.369Z,2.70
2023-05-22T23:43:59.166Z,2.80
2023-05-22T23:46:26.159Z,3.03
2023-05-22T23:48:55.024Z,2.50
2023-05-22T23:53:48.113Z,2.78
2023-05-22T23:56:14.726Z,2.75
2023-05-22T23:58:44.090Z,3.08
